sensor_id;sensor_type;location;lat;lon;timestamp;P1;durP1;ratioP1;P2;durP2;ratioP2
15567;SDS011;7885;42.596;23.044;2023-07-16T00:00:39;40.97;;;18.90;;
15567;SDS011;7885;42.596;23.044;2023-07-16T00:03:06;24.07;;;14.57;;
15567;SDS011;7885;42.596;23.044;2023-07-16T00:05:33;29.53;;;16.23;;
15567;SDS011;7885;42.596;23.044;2023-07-16T00:08:01;35.07;;;18.23;;
15567;SDS011;7885;42.596;23.044;2023-07-16T00:10:27;44.00;;;18.80;;
15567;SDS011;7885;42.596;23.044;2023-07-16T00:12:54;49.30;;;20.23;;
15567;SDS011;7885;42.596;23.044;2023-07-16T00:15:21;62.77;;;23.83;;
15567;SDS011;7885;42.596;23.044;2023-07-16T00:17:48;30.60;;;17.00;;
15567;SDS011;7885;42.596;23.044;2023-07-16T00:20:15;32.33;;;17.77;;
15567;SDS011;7885;42.596;23.044;2023-07-16T00:22:42;34.57;;;19.50;;
15567;SDS011;7885;42.596;23.044;2023-07-16T00:25:10;31.23;;;17.80;;
15567;SDS011;7885;42.596;23.044;2023-07-16T00:27:37;23.83;;;15.87;;
15567;SDS011;7885;42.596;23.044;2023-07-16T00:30:04;26.07;;;17.67;;
15567;SDS011;7885;42.596;23.044;2023-07-16T00:32:32;41.00;;;24.77;;
15567;SDS011;7885;42.596;23.044;2023-07-16T00:34:59;46.73;;;24.37;;
15567;SDS011;7885;42.596;23.044;2023-07-16T00:37:26;43.23;;;21.97;;
15567;SDS011;7885;42.596;23.044;2023-07-16T00:39:53;20.53;;;13.73;;
15567;SDS011;7885;42.596;23.044;2023-07-16T00:42:21;24.53;;;16.63;;
15567;SDS011;7885;42.596;23.044;2023-07-16T00:44:48;23.23;;;15.40;;
15567;SDS011;7885;42.596;23.044;2023-07-16T00:47:15;17.97;;;14.27;;
15567;SDS011;7885;42.596;23.044;2023-07-16T00:49:42;18.70;;;13.43;;
15567;SDS011;7885;42.596;23.044;2023-07-16T00:52:11;13.70;;;12.27;;
15567;SDS011;7885;42.596;23.044;2023-07-16T00:54:44;19.27;;;15.10;;
15567;SDS011;7885;42.596;23.044;2023-07-16T00:57:11;15.00;;;12.27;;
15567;SDS011;7885;42.596;23.044;2023-07-16T00:59:40;13.80;;;12.50;;
15567;SDS011;7885;42.596;23.044;2023-07-16T01:02:07;17.90;;;14.63;;
15567;SDS011;7885;42.596;23.044;2023-07-16T01:04:33;20.70;;;15.60;;
15567;SDS011;7885;42.596;23.044;2023-07-16T01:07:01;24.47;;;16.27;;
15567;SDS011;7885;42.596;23.044;2023-07-16T01:09:33;16.43;;;13.50;;
15567;SDS011;7885;42.596;23.044;2023-07-16T01:12:03;23.03;;;13.37;;
15567;SDS011;7885;42.596;23.044;2023-07-16T01:14:31;20.73;;;14.43;;
15567;SDS011;7885;42.596;23.044;2023-07-16T01:17:03;20.07;;;14.83;;
15567;SDS011;7885;42.596;23.044;2023-07-16T01:19:31;20.67;;;14.13;;
15567;SDS011;7885;42.596;23.044;2023-07-16T01:22:08;22.70;;;14.70;;
15567;SDS011;7885;42.596;23.044;2023-07-16T01:27:46;21.87;;;15.00;;
15567;SDS011;7885;42.596;23.044;2023-07-16T01:30:27;20.83;;;16.90;;
15567;SDS011;7885;42.596;23.044;2023-07-16T01:32:55;18.43;;;14.87;;
15567;SDS011;7885;42.596;23.044;2023-07-16T01:35:23;18.07;;;14.73;;
15567;SDS011;7885;42.596;23.044;2023-07-16T01:37:50;19.43;;;15.60;;
15567;SDS011;7885;42.596;23.044;2023-07-16T01:40:17;26.13;;;14.40;;
15567;SDS011;7885;42.596;23.044;2023-07-16T01:42:44;19.30;;;15.03;;
15567;SDS011;7885;42.596;23.044;2023-07-16T01:45:11;20.83;;;14.87;;
15567;SDS011;7885;42.596;23.044;2023-07-16T01:47:44;15.67;;;13.70;;
15567;SDS011;7885;42.596;23.044;2023-07-16T01:50:17;15.20;;;13.50;;
15567;SDS011;7885;42.596;23.044;2023-07-16T01:52:44;18.97;;;13.67;;
15567;SDS011;7885;42.596;23.044;2023-07-16T01:55:11;25.00;;;15.10;;
15567;SDS011;7885;42.596;23.044;2023-07-16T01:57:37;14.20;;;12.80;;
15567;SDS011;7885;42.596;23.044;2023-07-16T02:00:05;13.07;;;11.83;;
15567;SDS011;7885;42.596;23.044;2023-07-16T02:02:33;17.17;;;14.33;;
15567;SDS011;7885;42.596;23.044;2023-07-16T02:05:02;15.63;;;13.27;;
15567;SDS011;7885;42.596;23.044;2023-07-16T02:07:29;14.70;;;13.13;;
15567;SDS011;7885;42.596;23.044;2023-07-16T02:09:56;15.43;;;13.03;;
15567;SDS011;7885;42.596;23.044;2023-07-16T02:12:23;14.03;;;12.33;;
15567;SDS011;7885;42.596;23.044;2023-07-16T02:14:50;15.37;;;13.83;;
15567;SDS011;7885;42.596;23.044;2023-07-16T02:17:16;17.23;;;15.30;;
15567;SDS011;7885;42.596;23.044;2023-07-16T02:19:43;17.10;;;14.27;;
15567;SDS011;7885;42.596;23.044;2023-07-16T02:22:11;17.50;;;15.27;;
15567;SDS011;7885;42.596;23.044;2023-07-16T02:24:38;20.00;;;13.67;;
15567;SDS011;7885;42.596;23.044;2023-07-16T02:27:05;22.50;;;14.13;;
15567;SDS011;7885;42.596;23.044;2023-07-16T02:29:32;14.73;;;13.10;;
15567;SDS011;7885;42.596;23.044;2023-07-16T02:31:59;17.67;;;14.80;;
15567;SDS011;7885;42.596;23.044;2023-07-16T02:34:26;18.40;;;14.67;;
15567;SDS011;7885;42.596;23.044;2023-07-16T02:36:53;18.20;;;13.90;;
15567;SDS011;7885;42.596;23.044;2023-07-16T02:39:21;19.70;;;14.67;;
15567;SDS011;7885;42.596;23.044;2023-07-16T02:41:48;16.17;;;14.37;;
15567;SDS011;7885;42.596;23.044;2023-07-16T02:44:15;18.00;;;14.67;;
15567;SDS011;7885;42.596;23.044;2023-07-16T02:46:41;16.43;;;14.80;;
15567;SDS011;7885;42.596;23.044;2023-07-16T02:49:09;16.07;;;14.47;;
15567;SDS011;7885;42.596;23.044;2023-07-16T02:51:36;17.53;;;15.73;;
15567;SDS011;7885;42.596;23.044;2023-07-16T02:54:02;17.13;;;15.03;;
15567;SDS011;7885;42.596;23.044;2023-07-16T02:56:31;14.33;;;13.00;;
15567;SDS011;7885;42.596;23.044;2023-07-16T02:58:58;17.10;;;14.07;;
15567;SDS011;7885;42.596;23.044;2023-07-16T03:01:24;15.27;;;13.50;;
15567;SDS011;7885;42.596;23.044;2023-07-16T03:03:51;14.83;;;12.67;;
15567;SDS011;7885;42.596;23.044;2023-07-16T03:06:18;14.60;;;12.40;;
15567;SDS011;7885;42.596;23.044;2023-07-16T03:08:45;14.43;;;12.93;;
15567;SDS011;7885;42.596;23.044;2023-07-16T03:11:12;17.30;;;14.83;;
15567;SDS011;7885;42.596;23.044;2023-07-16T03:13:40;15.53;;;14.03;;
15567;SDS011;7885;42.596;23.044;2023-07-16T03:16:07;16.77;;;14.70;;
15567;SDS011;7885;42.596;23.044;2023-07-16T03:18:34;15.83;;;14.10;;
15567;SDS011;7885;42.596;23.044;2023-07-16T03:21:01;15.20;;;13.03;;
15567;SDS011;7885;42.596;23.044;2023-07-16T03:23:27;15.30;;;13.80;;
15567;SDS011;7885;42.596;23.044;2023-07-16T03:25:54;17.40;;;13.53;;
15567;SDS011;7885;42.596;23.044;2023-07-16T03:28:21;17.10;;;13.17;;
15567;SDS011;7885;42.596;23.044;2023-07-16T03:30:50;16.37;;;13.93;;
15567;SDS011;7885;42.596;23.044;2023-07-16T03:33:17;15.47;;;13.97;;
15567;SDS011;7885;42.596;23.044;2023-07-16T03:35:44;15.33;;;13.70;;
15567;SDS011;7885;42.596;23.044;2023-07-16T03:38:11;15.20;;;13.50;;
15567;SDS011;7885;42.596;23.044;2023-07-16T03:40:39;14.27;;;13.00;;
15567;SDS011;7885;42.596;23.044;2023-07-16T03:43:06;15.60;;;13.33;;
15567;SDS011;7885;42.596;23.044;2023-07-16T03:45:33;15.93;;;14.20;;
15567;SDS011;7885;42.596;23.044;2023-07-16T03:48:01;15.83;;;13.97;;
15567;SDS011;7885;42.596;23.044;2023-07-16T03:50:28;17.27;;;15.33;;
15567;SDS011;7885;42.596;23.044;2023-07-16T03:52:55;18.23;;;15.20;;
15567;SDS011;7885;42.596;23.044;2023-07-16T03:55:22;18.73;;;15.80;;
15567;SDS011;7885;42.596;23.044;2023-07-16T03:57:48;19.43;;;16.10;;
15567;SDS011;7885;42.596;23.044;2023-07-16T04:00:15;20.93;;;17.23;;
15567;SDS011;7885;42.596;23.044;2023-07-16T04:02:42;26.20;;;17.50;;
15567;SDS011;7885;42.596;23.044;2023-07-16T04:05:11;27.47;;;18.67;;
15567;SDS011;7885;42.596;23.044;2023-07-16T04:07:38;25.37;;;17.57;;
15567;SDS011;7885;42.596;23.044;2023-07-16T04:10:05;22.13;;;17.10;;
15567;SDS011;7885;42.596;23.044;2023-07-16T04:12:32;21.67;;;16.40;;
15567;SDS011;7885;42.596;23.044;2023-07-16T04:14:59;24.93;;;16.83;;
15567;SDS011;7885;42.596;23.044;2023-07-16T04:17:26;21.63;;;16.17;;
15567;SDS011;7885;42.596;23.044;2023-07-16T04:19:53;23.30;;;17.33;;
15567;SDS011;7885;42.596;23.044;2023-07-16T04:22:21;24.17;;;17.50;;
15567;SDS011;7885;42.596;23.044;2023-07-16T04:24:48;24.77;;;17.33;;
15567;SDS011;7885;42.596;23.044;2023-07-16T04:27:15;41.43;;;21.63;;
15567;SDS011;7885;42.596;23.044;2023-07-16T04:29:42;38.07;;;20.43;;
15567;SDS011;7885;42.596;23.044;2023-07-16T04:32:09;32.80;;;19.43;;
15567;SDS011;7885;42.596;23.044;2023-07-16T04:34:36;45.33;;;22.00;;
15567;SDS011;7885;42.596;23.044;2023-07-16T04:37:03;56.13;;;23.97;;
15567;SDS011;7885;42.596;23.044;2023-07-16T04:39:31;97.73;;;28.40;;
15567;SDS011;7885;42.596;23.044;2023-07-16T04:41:58;125.53;;;31.73;;
15567;SDS011;7885;42.596;23.044;2023-07-16T04:44:25;77.80;;;28.73;;
15567;SDS011;7885;42.596;23.044;2023-07-16T04:46:52;60.80;;;25.00;;
15567;SDS011;7885;42.596;23.044;2023-07-16T04:49:19;71.40;;;25.10;;
15567;SDS011;7885;42.596;23.044;2023-07-16T04:51:45;81.53;;;26.30;;
15567;SDS011;7885;42.596;23.044;2023-07-16T04:54:12;62.83;;;25.07;;
15567;SDS011;7885;42.596;23.044;2023-07-16T04:56:40;70.37;;;24.53;;
15567;SDS011;7885;42.596;23.044;2023-07-16T04:59:07;64.23;;;24.50;;
15567;SDS011;7885;42.596;23.044;2023-07-16T05:01:34;64.53;;;24.37;;
15567;SDS011;7885;42.596;23.044;2023-07-16T05:04:01;60.23;;;23.10;;
15567;SDS011;7885;42.596;23.044;2023-07-16T05:06:28;48.57;;;23.20;;
15567;SDS011;7885;42.596;23.044;2023-07-16T05:08:54;54.90;;;22.67;;
15567;SDS011;7885;42.596;23.044;2023-07-16T05:11:21;45.33;;;24.60;;
15567;SDS011;7885;42.596;23.044;2023-07-16T05:13:52;52.10;;;23.77;;
15567;SDS011;7885;42.596;23.044;2023-07-16T05:16:18;46.03;;;24.50;;
15567;SDS011;7885;42.596;23.044;2023-07-16T05:18:45;45.90;;;23.90;;
15567;SDS011;7885;42.596;23.044;2023-07-16T05:21:12;46.93;;;22.63;;
15567;SDS011;7885;42.596;23.044;2023-07-16T05:23:39;46.73;;;22.70;;
15567;SDS011;7885;42.596;23.044;2023-07-16T05:26:06;55.00;;;23.60;;
15567;SDS011;7885;42.596;23.044;2023-07-16T05:28:33;37.43;;;22.27;;
15567;SDS011;7885;42.596;23.044;2023-07-16T05:31:02;55.70;;;22.83;;
15567;SDS011;7885;42.596;23.044;2023-07-16T05:33:29;30.90;;;19.53;;
15567;SDS011;7885;42.596;23.044;2023-07-16T05:35:56;33.00;;;19.70;;
15567;SDS011;7885;42.596;23.044;2023-07-16T05:38:23;33.00;;;19.67;;
15567;SDS011;7885;42.596;23.044;2023-07-16T05:40:50;39.97;;;22.67;;
15567;SDS011;7885;42.596;23.044;2023-07-16T05:43:17;41.50;;;22.00;;
15567;SDS011;7885;42.596;23.044;2023-07-16T05:45:44;47.50;;;21.60;;
15567;SDS011;7885;42.596;23.044;2023-07-16T05:48:12;34.33;;;19.57;;
15567;SDS011;7885;42.596;23.044;2023-07-16T05:50:39;40.33;;;22.33;;
15567;SDS011;7885;42.596;23.044;2023-07-16T05:53:06;42.80;;;22.63;;
15567;SDS011;7885;42.596;23.044;2023-07-16T05:55:33;35.97;;;22.20;;
15567;SDS011;7885;42.596;23.044;2023-07-16T05:57:59;44.90;;;21.80;;
15567;SDS011;7885;42.596;23.044;2023-07-16T06:00:26;35.90;;;20.53;;
15567;SDS011;7885;42.596;23.044;2023-07-16T06:02:53;33.75;;;20.38;;
15567;SDS011;7885;42.596;23.044;2023-07-16T06:05:22;31.48;;;19.73;;
15567;SDS011;7885;42.596;23.044;2023-07-16T06:07:49;33.97;;;20.03;;
15567;SDS011;7885;42.596;23.044;2023-07-16T06:10:16;34.20;;;19.83;;
15567;SDS011;7885;42.596;23.044;2023-07-16T06:12:43;33.08;;;19.92;;
15567;SDS011;7885;42.596;23.044;2023-07-16T06:15:10;29.15;;;19.40;;
15567;SDS011;7885;42.596;23.044;2023-07-16T06:17:37;34.03;;;18.93;;
15567;SDS011;7885;42.596;23.044;2023-07-16T06:20:04;28.90;;;19.00;;
15567;SDS011;7885;42.596;23.044;2023-07-16T06:22:34;30.35;;;19.58;;
15567;SDS011;7885;42.596;23.044;2023-07-16T06:25:00;35.20;;;19.42;;
15567;SDS011;7885;42.596;23.044;2023-07-16T06:27:27;25.90;;;18.33;;
15567;SDS011;7885;42.596;23.044;2023-07-16T06:29:54;28.95;;;19.63;;
15567;SDS011;7885;42.596;23.044;2023-07-16T06:32:21;32.85;;;18.30;;
15567;SDS011;7885;42.596;23.044;2023-07-16T06:34:48;27.20;;;18.60;;
15567;SDS011;7885;42.596;23.044;2023-07-16T06:37:15;30.73;;;19.30;;
15567;SDS011;7885;42.596;23.044;2023-07-16T06:39:43;29.88;;;18.58;;
15567;SDS011;7885;42.596;23.044;2023-07-16T06:42:10;30.33;;;18.67;;
15567;SDS011;7885;42.596;23.044;2023-07-16T06:44:37;29.13;;;19.88;;
15567;SDS011;7885;42.596;23.044;2023-07-16T06:47:04;31.50;;;18.73;;
15567;SDS011;7885;42.596;23.044;2023-07-16T06:49:31;29.98;;;19.73;;
15567;SDS011;7885;42.596;23.044;2023-07-16T06:52:00;40.00;;;20.77;;
15567;SDS011;7885;42.596;23.044;2023-07-16T06:54:27;28.75;;;18.95;;
15567;SDS011;7885;42.596;23.044;2023-07-16T06:56:55;26.58;;;18.83;;
15567;SDS011;7885;42.596;23.044;2023-07-16T06:59:22;28.17;;;17.42;;
15567;SDS011;7885;42.596;23.044;2023-07-16T07:01:49;26.58;;;18.58;;
15567;SDS011;7885;42.596;23.044;2023-07-16T07:04:15;27.90;;;18.27;;
15567;SDS011;7885;42.596;23.044;2023-07-16T07:06:42;30.88;;;17.75;;
15567;SDS011;7885;42.596;23.044;2023-07-16T07:09:09;26.60;;;17.20;;
15567;SDS011;7885;42.596;23.044;2023-07-16T07:11:36;27.83;;;16.90;;
15567;SDS011;7885;42.596;23.044;2023-07-16T07:14:04;23.38;;;16.85;;
15567;SDS011;7885;42.596;23.044;2023-07-16T07:16:31;23.27;;;15.82;;
15567;SDS011;7885;42.596;23.044;2023-07-16T07:18:58;24.42;;;16.58;;
15567;SDS011;7885;42.596;23.044;2023-07-16T07:21:24;25.88;;;16.83;;
15567;SDS011;7885;42.596;23.044;2023-07-16T07:23:51;25.75;;;16.73;;
15567;SDS011;7885;42.596;23.044;2023-07-16T07:26:18;23.33;;;16.25;;
15567;SDS011;7885;42.596;23.044;2023-07-16T07:28:45;20.63;;;14.73;;
15567;SDS011;7885;42.596;23.044;2023-07-16T07:31:13;20.92;;;15.73;;
15567;SDS011;7885;42.596;23.044;2023-07-16T07:33:40;23.10;;;14.70;;
15567;SDS011;7885;42.596;23.044;2023-07-16T07:36:07;19.13;;;16.67;;
15567;SDS011;7885;42.596;23.044;2023-07-16T07:38:34;24.65;;;16.80;;
15567;SDS011;7885;42.596;23.044;2023-07-16T07:41:00;23.25;;;16.38;;
15567;SDS011;7885;42.596;23.044;2023-07-16T07:43:27;21.58;;;15.95;;
15567;SDS011;7885;42.596;23.044;2023-07-16T07:45:54;32.58;;;16.33;;
15567;SDS011;7885;42.596;23.044;2023-07-16T07:48:22;21.13;;;14.45;;
15567;SDS011;7885;42.596;23.044;2023-07-16T07:50:49;16.15;;;11.13;;
15567;SDS011;7885;42.596;23.044;2023-07-16T07:53:16;11.18;;;10.02;;
15567;SDS011;7885;42.596;23.044;2023-07-16T07:55:44;24.02;;;14.98;;
15567;SDS011;7885;42.596;23.044;2023-07-16T07:58:11;17.88;;;13.60;;
15567;SDS011;7885;42.596;23.044;2023-07-16T08:00:38;18.58;;;15.20;;
15567;SDS011;7885;42.596;23.044;2023-07-16T08:03:05;12.85;;;11.43;;
15567;SDS011;7885;42.596;23.044;2023-07-16T08:05:33;21.65;;;14.13;;
15567;SDS011;7885;42.596;23.044;2023-07-16T08:08:00;25.38;;;14.98;;
15567;SDS011;7885;42.596;23.044;2023-07-16T08:10:27;20.67;;;14.00;;
15567;SDS011;7885;42.596;23.044;2023-07-16T08:12:54;20.42;;;13.00;;
15567;SDS011;7885;42.596;23.044;2023-07-16T08:15:20;14.43;;;11.90;;
15567;SDS011;7885;42.596;23.044;2023-07-16T08:17:47;18.42;;;13.65;;
15567;SDS011;7885;42.596;23.044;2023-07-16T08:20:14;19.95;;;14.50;;
15567;SDS011;7885;42.596;23.044;2023-07-16T08:22:42;21.67;;;14.45;;
15567;SDS011;7885;42.596;23.044;2023-07-16T08:25:09;17.20;;;13.80;;
15567;SDS011;7885;42.596;23.044;2023-07-16T08:27:36;19.95;;;14.02;;
15567;SDS011;7885;42.596;23.044;2023-07-16T08:30:04;19.00;;;14.07;;
15567;SDS011;7885;42.596;23.044;2023-07-16T08:32:31;19.55;;;14.93;;
15567;SDS011;7885;42.596;23.044;2023-07-16T08:34:58;16.40;;;14.07;;
15567;SDS011;7885;42.596;23.044;2023-07-16T08:37:25;14.32;;;12.30;;
15567;SDS011;7885;42.596;23.044;2023-07-16T08:39:53;14.73;;;11.65;;
15567;SDS011;7885;42.596;23.044;2023-07-16T08:42:20;19.48;;;14.20;;
15567;SDS011;7885;42.596;23.044;2023-07-16T08:44:48;14.68;;;13.15;;
15567;SDS011;7885;42.596;23.044;2023-07-16T08:47:15;16.08;;;13.65;;
15567;SDS011;7885;42.596;23.044;2023-07-16T08:53:04;17.80;;;12.23;;
15567;SDS011;7885;42.596;23.044;2023-07-16T08:55:33;19.83;;;13.30;;
15567;SDS011;7885;42.596;23.044;2023-07-16T08:58:02;18.48;;;13.98;;
15567;SDS011;7885;42.596;23.044;2023-07-16T09:00:29;17.65;;;13.07;;
15567;SDS011;7885;42.596;23.044;2023-07-16T09:02:57;17.25;;;13.32;;
15567;SDS011;7885;42.596;23.044;2023-07-16T09:05:23;18.92;;;13.35;;
15567;SDS011;7885;42.596;23.044;2023-07-16T09:07:50;15.43;;;13.32;;
15567;SDS011;7885;42.596;23.044;2023-07-16T09:10:17;17.70;;;13.43;;
15567;SDS011;7885;42.596;23.044;2023-07-16T09:12:46;22.33;;;14.02;;
15567;SDS011;7885;42.596;23.044;2023-07-16T09:15:13;16.08;;;13.43;;
15567;SDS011;7885;42.596;23.044;2023-07-16T09:17:46;17.77;;;13.57;;
15567;SDS011;7885;42.596;23.044;2023-07-16T09:20:14;19.73;;;14.27;;
15567;SDS011;7885;42.596;23.044;2023-07-16T09:22:42;22.65;;;13.30;;
15567;SDS011;7885;42.596;23.044;2023-07-16T09:25:08;15.13;;;13.48;;
15567;SDS011;7885;42.596;23.044;2023-07-16T09:31:04;14.93;;;13.45;;
15567;SDS011;7885;42.596;23.044;2023-07-16T09:33:31;15.75;;;13.63;;
15567;SDS011;7885;42.596;23.044;2023-07-16T09:35:58;18.00;;;13.57;;
15567;SDS011;7885;42.596;23.044;2023-07-16T09:38:27;15.60;;;13.55;;
15567;SDS011;7885;42.596;23.044;2023-07-16T09:40:55;19.10;;;13.13;;
15567;SDS011;7885;42.596;23.044;2023-07-16T09:43:22;16.70;;;14.68;;
15567;SDS011;7885;42.596;23.044;2023-07-16T09:45:49;21.00;;;14.68;;
15567;SDS011;7885;42.596;23.044;2023-07-16T09:48:17;24.40;;;16.13;;
15567;SDS011;7885;42.596;23.044;2023-07-16T09:50:46;19.88;;;15.13;;
15567;SDS011;7885;42.596;23.044;2023-07-16T09:53:17;24.25;;;15.13;;
15567;SDS011;7885;42.596;23.044;2023-07-16T09:55:46;24.40;;;14.52;;
15567;SDS011;7885;42.596;23.044;2023-07-16T09:58:14;20.23;;;15.35;;
15567;SDS011;7885;42.596;23.044;2023-07-16T10:00:44;16.75;;;14.63;;
15567;SDS011;7885;42.596;23.044;2023-07-16T10:03:12;16.88;;;14.10;;
15567;SDS011;7885;42.596;23.044;2023-07-16T10:05:42;23.85;;;14.82;;
15567;SDS011;7885;42.596;23.044;2023-07-16T10:08:15;21.65;;;13.95;;
15567;SDS011;7885;42.596;23.044;2023-07-16T10:10:43;16.75;;;14.48;;
15567;SDS011;7885;42.596;23.044;2023-07-16T10:13:13;21.55;;;14.05;;
15567;SDS011;7885;42.596;23.044;2023-07-16T10:15:50;20.42;;;14.10;;
15567;SDS011;7885;42.596;23.044;2023-07-16T10:18:25;26.02;;;13.95;;
15567;SDS011;7885;42.596;23.044;2023-07-16T10:21:02;21.30;;;13.48;;
15567;SDS011;7885;42.596;23.044;2023-07-16T10:23:38;18.90;;;12.95;;
15567;SDS011;7885;42.596;23.044;2023-07-16T10:26:06;17.23;;;13.65;;
15567;SDS011;7885;42.596;23.044;2023-07-16T10:28:34;17.55;;;13.45;;
15567;SDS011;7885;42.596;23.044;2023-07-16T10:31:01;21.42;;;19.05;;
15567;SDS011;7885;42.596;23.044;2023-07-16T10:33:28;17.58;;;14.90;;
15567;SDS011;7885;42.596;23.044;2023-07-16T10:35:56;23.25;;;15.18;;
15567;SDS011;7885;42.596;23.044;2023-07-16T10:38:25;16.52;;;13.60;;
15567;SDS011;7885;42.596;23.044;2023-07-16T10:40:52;20.08;;;14.98;;
15567;SDS011;7885;42.596;23.044;2023-07-16T10:43:19;16.10;;;13.23;;
15567;SDS011;7885;42.596;23.044;2023-07-16T10:45:46;19.83;;;13.27;;
15567;SDS011;7885;42.596;23.044;2023-07-16T10:48:13;18.00;;;13.60;;
15567;SDS011;7885;42.596;23.044;2023-07-16T10:50:40;21.63;;;15.07;;
15567;SDS011;7885;42.596;23.044;2023-07-16T10:53:07;20.15;;;14.02;;
15567;SDS011;7885;42.596;23.044;2023-07-16T10:55:35;32.30;;;15.32;;
15567;SDS011;7885;42.596;23.044;2023-07-16T10:58:03;23.63;;;14.93;;
15567;SDS011;7885;42.596;23.044;2023-07-16T11:00:30;18.58;;;14.38;;
15567;SDS011;7885;42.596;23.044;2023-07-16T11:02:57;21.77;;;13.57;;
15567;SDS011;7885;42.596;23.044;2023-07-16T11:05:24;21.98;;;15.18;;
15567;SDS011;7885;42.596;23.044;2023-07-16T11:07:51;19.80;;;15.15;;
15567;SDS011;7885;42.596;23.044;2023-07-16T11:10:18;19.50;;;14.02;;
15567;SDS011;7885;42.596;23.044;2023-07-16T11:12:49;22.50;;;13.82;;
15567;SDS011;7885;42.596;23.044;2023-07-16T11:15:18;19.35;;;14.88;;
15567;SDS011;7885;42.596;23.044;2023-07-16T11:17:48;23.75;;;16.50;;
15567;SDS011;7885;42.596;23.044;2023-07-16T11:20:15;21.70;;;14.93;;
15567;SDS011;7885;42.596;23.044;2023-07-16T11:22:46;19.65;;;13.95;;
15567;SDS011;7885;42.596;23.044;2023-07-16T11:25:13;21.27;;;13.68;;
15567;SDS011;7885;42.596;23.044;2023-07-16T11:27:40;15.40;;;13.70;;
15567;SDS011;7885;42.596;23.044;2023-07-16T11:30:10;18.98;;;14.15;;
15567;SDS011;7885;42.596;23.044;2023-07-16T11:32:37;23.60;;;20.50;;
15567;SDS011;7885;42.596;23.044;2023-07-16T11:35:08;19.80;;;14.23;;
15567;SDS011;7885;42.596;23.044;2023-07-16T11:37:50;20.70;;;13.70;;
15567;SDS011;7885;42.596;23.044;2023-07-16T11:40:18;20.70;;;13.60;;
15567;SDS011;7885;42.596;23.044;2023-07-16T11:42:46;17.60;;;13.45;;
15567;SDS011;7885;42.596;23.044;2023-07-16T11:45:18;17.70;;;13.20;;
15567;SDS011;7885;42.596;23.044;2023-07-16T11:47:45;13.30;;;11.73;;
15567;SDS011;7885;42.596;23.044;2023-07-16T11:50:12;19.20;;;12.55;;
15567;SDS011;7885;42.596;23.044;2023-07-16T11:52:39;16.02;;;11.57;;
15567;SDS011;7885;42.596;23.044;2023-07-16T11:55:07;18.10;;;12.90;;
15567;SDS011;7885;42.596;23.044;2023-07-16T11:57:34;18.02;;;13.20;;
15567;SDS011;7885;42.596;23.044;2023-07-16T12:00:01;16.63;;;12.35;;
15567;SDS011;7885;42.596;23.044;2023-07-16T12:02:30;15.30;;;11.88;;
15567;SDS011;7885;42.596;23.044;2023-07-16T12:04:56;17.23;;;12.15;;
15567;SDS011;7885;42.596;23.044;2023-07-16T12:07:30;17.65;;;12.25;;
15567;SDS011;7885;42.596;23.044;2023-07-16T12:09:58;18.38;;;12.20;;
15567;SDS011;7885;42.596;23.044;2023-07-16T12:12:25;21.10;;;11.90;;
15567;SDS011;7885;42.596;23.044;2023-07-16T12:14:52;21.90;;;12.43;;
15567;SDS011;7885;42.596;23.044;2023-07-16T12:17:19;14.70;;;10.32;;
15567;SDS011;7885;42.596;23.044;2023-07-16T12:19:47;15.68;;;11.18;;
15567;SDS011;7885;42.596;23.044;2023-07-16T12:22:14;15.85;;;11.00;;
15567;SDS011;7885;42.596;23.044;2023-07-16T12:24:43;14.02;;;10.88;;
15567;SDS011;7885;42.596;23.044;2023-07-16T12:27:11;15.18;;;10.23;;
15567;SDS011;7885;42.596;23.044;2023-07-16T12:29:37;13.27;;;11.18;;
15567;SDS011;7885;42.596;23.044;2023-07-16T12:32:05;12.27;;;10.80;;
15567;SDS011;7885;42.596;23.044;2023-07-16T12:34:33;15.15;;;11.13;;
15567;SDS011;7885;42.596;23.044;2023-07-16T12:37:01;10.93;;;9.93;;
15567;SDS011;7885;42.596;23.044;2023-07-16T12:39:29;11.85;;;10.35;;
15567;SDS011;7885;42.596;23.044;2023-07-16T12:41:55;11.85;;;10.02;;
15567;SDS011;7885;42.596;23.044;2023-07-16T12:44:22;15.30;;;9.63;;
15567;SDS011;7885;42.596;23.044;2023-07-16T12:46:49;10.63;;;9.52;;
15567;SDS011;7885;42.596;23.044;2023-07-16T12:49:16;12.23;;;9.70;;
15567;SDS011;7885;42.596;23.044;2023-07-16T12:51:42;11.75;;;9.90;;
15567;SDS011;7885;42.596;23.044;2023-07-16T12:54:10;12.60;;;9.43;;
15567;SDS011;7885;42.596;23.044;2023-07-16T12:56:37;11.40;;;9.30;;
15567;SDS011;7885;42.596;23.044;2023-07-16T12:59:04;15.95;;;9.35;;
15567;SDS011;7885;42.596;23.044;2023-07-16T13:01:31;10.45;;;8.93;;
15567;SDS011;7885;42.596;23.044;2023-07-16T13:03:57;9.45;;;8.52;;
15567;SDS011;7885;42.596;23.044;2023-07-16T13:06:24;10.35;;;9.20;;
15567;SDS011;7885;42.596;23.044;2023-07-16T13:08:51;11.45;;;8.88;;
15567;SDS011;7885;42.596;23.044;2023-07-16T13:11:19;16.23;;;8.88;;
15567;SDS011;7885;42.596;23.044;2023-07-16T13:13:46;11.55;;;8.23;;
15567;SDS011;7885;42.596;23.044;2023-07-16T13:16:13;9.57;;;8.40;;
15567;SDS011;7885;42.596;23.044;2023-07-16T13:18:40;12.00;;;8.80;;
15567;SDS011;7885;42.596;23.044;2023-07-16T13:21:06;8.90;;;8.00;;
15567;SDS011;7885;42.596;23.044;2023-07-16T13:23:33;11.45;;;8.25;;
15567;SDS011;7885;42.596;23.044;2023-07-16T13:26:00;9.10;;;8.18;;
15567;SDS011;7885;42.596;23.044;2023-07-16T13:28:28;11.77;;;8.50;;
15567;SDS011;7885;42.596;23.044;2023-07-16T13:30:55;10.52;;;8.77;;
15567;SDS011;7885;42.596;23.044;2023-07-16T13:33:22;9.73;;;7.90;;
15567;SDS011;7885;42.596;23.044;2023-07-16T13:35:49;9.02;;;7.88;;
15567;SDS011;7885;42.596;23.044;2023-07-16T13:38:16;11.63;;;7.75;;
15567;SDS011;7885;42.596;23.044;2023-07-16T13:40:42;18.30;;;8.88;;
15567;SDS011;7885;42.596;23.044;2023-07-16T13:43:09;9.50;;;8.07;;
15567;SDS011;7885;42.596;23.044;2023-07-16T13:55:42;8.95;;;7.95;;
15567;SDS011;7885;42.596;23.044;2023-07-16T13:58:09;10.07;;;8.02;;
15567;SDS011;7885;42.596;23.044;2023-07-16T14:00:37;14.07;;;8.60;;
15567;SDS011;7885;42.596;23.044;2023-07-16T14:03:03;13.68;;;8.32;;
15567;SDS011;7885;42.596;23.044;2023-07-16T14:05:31;15.25;;;8.27;;
15567;SDS011;7885;42.596;23.044;2023-07-16T14:07:59;9.43;;;8.20;;
15567;SDS011;7885;42.596;23.044;2023-07-16T14:10:26;10.88;;;8.25;;
15567;SDS011;7885;42.596;23.044;2023-07-16T14:12:54;9.35;;;8.02;;
15567;SDS011;7885;42.596;23.044;2023-07-16T14:15:21;9.25;;;8.35;;
15567;SDS011;7885;42.596;23.044;2023-07-16T14:17:48;8.43;;;7.70;;
15567;SDS011;7885;42.596;23.044;2023-07-16T14:20:15;8.88;;;7.50;;
15567;SDS011;7885;42.596;23.044;2023-07-16T14:22:42;9.02;;;8.15;;
15567;SDS011;7885;42.596;23.044;2023-07-16T14:25:09;10.38;;;8.02;;
15567;SDS011;7885;42.596;23.044;2023-07-16T14:27:36;11.40;;;9.02;;
15567;SDS011;7885;42.596;23.044;2023-07-16T14:30:05;11.57;;;8.95;;
15567;SDS011;7885;42.596;23.044;2023-07-16T14:32:33;9.60;;;8.23;;
15567;SDS011;7885;42.596;23.044;2023-07-16T14:35:01;10.95;;;8.40;;
15567;SDS011;7885;42.596;23.044;2023-07-16T14:37:28;14.18;;;9.32;;
15567;SDS011;7885;42.596;23.044;2023-07-16T14:39:56;10.63;;;9.50;;
15567;SDS011;7885;42.596;23.044;2023-07-16T14:42:22;12.00;;;8.82;;
15567;SDS011;7885;42.596;23.044;2023-07-16T14:44:49;8.75;;;7.75;;